sensor_id;sensor_type;location;lat;lon;timestamp;pressure;altitude;pressure_sealevel;temperature;humidity
72961;BME280;61141;46.204;19.774;2023-04-15T00:01:46;99419.88;;;7.74;96.02
72961;BME280;61141;46.204;19.774;2023-04-15T00:04:49;99430.03;;;7.77;96.11
72961;BME280;61141;46.204;19.774;2023-04-15T00:07:52;99427.75;;;7.79;95.67
72961;BME280;61141;46.204;19.774;2023-04-15T00:10:55;99420.22;;;7.68;95.17
72961;BME280;61141;46.204;19.774;2023-04-15T00:13:58;99431.38;;;7.56;95.05
72961;BME280;61141;46.204;19.774;2023-04-15T00:17:02;99436.37;;;7.54;95.52
72961;BME280;61141;46.204;19.774;2023-04-15T00:20:06;99436.06;;;7.59;96.10
72961;BME280;61141;46.204;19.774;2023-04-15T00:23:09;99432.84;;;7.50;96.10
72961;BME280;61141;46.204;19.774;2023-04-15T00:26:12;99428.34;;;7.32;96.66
72961;BME280;61141;46.204;19.774;2023-04-15T00:29:15;99434.00;;;7.20;96.91
72961;BME280;61141;46.204;19.774;2023-04-15T00:32:18;99419.25;;;7.21;97.24
72961;BME280;61141;46.204;19.774;2023-04-15T00:35:21;99432.88;;;7.21;97.18
72961;BME280;61141;46.204;19.774;2023-04-15T00:38:25;99434.34;;;7.15;97.18
72961;BME280;61141;46.204;19.774;2023-04-15T00:41:29;99436.16;;;7.07;96.80
72961;BME280;61141;46.204;19.774;2023-04-15T00:44:33;99436.16;;;7.07;96.62
72961;BME280;61141;46.204;19.774;2023-04-15T00:47:38;99430.81;;;6.88;96.59
72961;BME280;61141;46.204;19.774;2023-04-15T00:50:43;99450.56;;;6.81;96.68
72961;BME280;61141;46.204;19.774;2023-04-15T00:53:46;99448.56;;;6.78;96.92
72961;BME280;61141;46.204;19.774;2023-04-15T00:56:49;99450.00;;;6.95;97.18
72961;BME280;61141;46.204;19.774;2023-04-15T00:59:54;99450.31;;;6.90;97.30
72961;BME280;61141;46.204;19.774;2023-04-15T01:02:57;99452.25;;;6.89;96.89
72961;BME280;61141;46.204;19.774;2023-04-15T01:06:00;99454.81;;;6.79;97.01
72961;BME280;61141;46.204;19.774;2023-04-15T01:09:05;99442.44;;;6.59;96.86
72961;BME280;61141;46.204;19.774;2023-04-15T01:12:11;99455.28;;;6.84;96.90
72961;BME280;61141;46.204;19.774;2023-04-15T01:15:15;99454.91;;;6.86;96.81
72961;BME280;61141;46.204;19.774;2023-04-15T01:18:18;99461.13;;;7.12;95.88
72961;BME280;61141;46.204;19.774;2023-04-15T01:21:22;99461.97;;;6.90;95.41
72961;BME280;61141;46.204;19.774;2023-04-15T01:24:26;99456.91;;;6.89;96.21
72961;BME280;61141;46.204;19.774;2023-04-15T01:27:29;99451.75;;;7.10;96.03
72961;BME280;61141;46.204;19.774;2023-04-15T01:30:33;99460.16;;;6.98;96.02
72961;BME280;61141;46.204;19.774;2023-04-15T01:33:36;99446.34;;;6.84;96.29
72961;BME280;61141;46.204;19.774;2023-04-15T01:36:40;99460.59;;;6.77;96.47
72961;BME280;61141;46.204;19.774;2023-04-15T01:39:43;99461.66;;;6.69;96.70
72961;BME280;61141;46.204;19.774;2023-04-15T01:42:46;99453.31;;;6.59;96.90
72961;BME280;61141;46.204;19.774;2023-04-15T01:45:49;99466.69;;;6.93;97.01
72961;BME280;61141;46.204;19.774;2023-04-15T01:48:53;99461.72;;;6.99;96.78
72961;BME280;61141;46.204;19.774;2023-04-15T01:51:55;99460.72;;;7.10;96.66
72961;BME280;61141;46.204;19.774;2023-04-15T01:54:58;99460.78;;;7.14;96.47
72961;BME280;61141;46.204;19.774;2023-04-15T01:58:02;99470.22;;;7.24;96.55
72961;BME280;61141;46.204;19.774;2023-04-15T02:01:05;99472.81;;;7.13;96.37
72961;BME280;61141;46.204;19.774;2023-04-15T02:04:08;99460.75;;;6.88;96.72
72961;BME280;61141;46.204;19.774;2023-04-15T02:07:17;99479.53;;;6.93;96.90
72961;BME280;61141;46.204;19.774;2023-04-15T02:10:21;99484.19;;;6.92;96.78
72961;BME280;61141;46.204;19.774;2023-04-15T02:13:24;99489.56;;;6.89;97.33
72961;BME280;61141;46.204;19.774;2023-04-15T02:16:27;99496.06;;;7.07;96.97
72961;BME280;61141;46.204;19.774;2023-04-15T02:19:30;99481.88;;;6.94;97.06
72961;BME280;61141;46.204;19.774;2023-04-15T02:22:33;99486.66;;;7.01;97.03
72961;BME280;61141;46.204;19.774;2023-04-15T02:25:37;99484.50;;;7.14;97.03
72961;BME280;61141;46.204;19.774;2023-04-15T02:28:41;99475.41;;;7.32;96.91
72961;BME280;61141;46.204;19.774;2023-04-15T02:31:43;99477.50;;;7.42;97.28
72961;BME280;61141;46.204;19.774;2023-04-15T02:34:47;99478.50;;;7.31;97.25
72961;BME280;61141;46.204;19.774;2023-04-15T02:37:50;99480.97;;;7.39;96.99
72961;BME280;61141;46.204;19.774;2023-04-15T02:40:54;99481.66;;;7.33;97.28
72961;BME280;61141;46.204;19.774;2023-04-15T02:43:57;99474.66;;;7.32;97.68
72961;BME280;61141;46.204;19.774;2023-04-15T02:47:00;99470.25;;;7.53;96.98
72961;BME280;61141;46.204;19.774;2023-04-15T02:50:03;99474.66;;;7.32;96.96
72961;BME280;61141;46.204;19.774;2023-04-15T02:53:06;99479.25;;;7.28;96.78
72961;BME280;61141;46.204;19.774;2023-04-15T02:56:09;99482.25;;;7.19;97.56
72961;BME280;61141;46.204;19.774;2023-04-15T02:59:13;99470.16;;;7.17;97.39
72961;BME280;61141;46.204;19.774;2023-04-15T03:02:16;99469.47;;;7.23;97.45
72961;BME280;61141;46.204;19.774;2023-04-15T03:05:19;99460.50;;;7.23;97.38
72961;BME280;61141;46.204;19.774;2023-04-15T03:08:23;99465.56;;;7.24;97.12
72961;BME280;61141;46.204;19.774;2023-04-15T03:11:25;99468.16;;;7.40;96.57
72961;BME280;61141;46.204;19.774;2023-04-15T03:14:28;99458.13;;;7.21;96.65
72961;BME280;61141;46.204;19.774;2023-04-15T03:17:32;99468.06;;;7.06;97.07
72961;BME280;61141;46.204;19.774;2023-04-15T03:20:34;99464.56;;;7.06;97.12
72961;BME280;61141;46.204;19.774;2023-04-15T03:23:38;99462.63;;;7.06;96.84
72961;BME280;61141;46.204;19.774;2023-04-15T03:26:41;99457.69;;;6.89;96.97
72961;BME280;61141;46.204;19.774;2023-04-15T03:29:44;99457.00;;;6.96;96.93
72961;BME280;61141;46.204;19.774;2023-04-15T03:32:47;99457.75;;;6.93;97.07
72961;BME280;61141;46.204;19.774;2023-04-15T03:35:51;99444.50;;;6.91;96.76
72961;BME280;61141;46.204;19.774;2023-04-15T03:38:54;99460.34;;;6.86;97.02
72961;BME280;61141;46.204;19.774;2023-04-15T03:41:58;99457.31;;;6.91;96.77
72961;BME280;61141;46.204;19.774;2023-04-15T03:45:01;99464.31;;;6.66;96.80
72961;BME280;61141;46.204;19.774;2023-04-15T03:48:04;99469.88;;;6.73;97.27
72961;BME280;61141;46.204;19.774;2023-04-15T03:51:18;99466.97;;;6.85;96.99
72961;BME280;61141;46.204;19.774;2023-04-15T03:54:21;99472.41;;;6.85;96.86
72961;BME280;61141;46.204;19.774;2023-04-15T03:57:24;99475.16;;;6.88;96.76
72961;BME280;61141;46.204;19.774;2023-04-15T04:00:27;99480.34;;;6.97;96.64
72961;BME280;61141;46.204;19.774;2023-04-15T04:03:30;99478.78;;;6.96;96.78
72961;BME280;61141;46.204;19.774;2023-04-15T04:06:33;99484.75;;;6.79;97.33
72961;BME280;61141;46.204;19.774;2023-04-15T04:09:36;99486.84;;;6.89;97.25
72961;BME280;61141;46.204;19.774;2023-04-15T04:12:41;99485.72;;;6.90;96.56
72961;BME280;61141;46.204;19.774;2023-04-15T04:15:44;99485.88;;;6.78;96.88
72961;BME280;61141;46.204;19.774;2023-04-15T04:18:47;99484.63;;;6.72;97.17
72961;BME280;61141;46.204;19.774;2023-04-15T04:21:51;99487.78;;;7.00;96.73
72961;BME280;61141;46.204;19.774;2023-04-15T04:24:53;99481.31;;;6.82;97.04
72961;BME280;61141;46.204;19.774;2023-04-15T04:27:56;99473.78;;;6.98;97.02
72961;BME280;61141;46.204;19.774;2023-04-15T04:30:59;99473.03;;;7.01;96.87
72961;BME280;61141;46.204;19.774;2023-04-15T04:34:02;99468.00;;;7.03;96.29
72961;BME280;61141;46.204;19.774;2023-04-15T04:37:05;99479.78;;;7.10;96.25
72961;BME280;61141;46.204;19.774;2023-04-15T04:40:08;99479.31;;;7.05;96.24
72961;BME280;61141;46.204;19.774;2023-04-15T04:43:12;99481.03;;;6.90;96.88
72961;BME280;61141;46.204;19.774;2023-04-15T04:46:15;99486.47;;;6.90;96.84
72961;BME280;61141;46.204;19.774;2023-04-15T04:49:18;99485.06;;;7.00;96.65
72961;BME280;61141;46.204;19.774;2023-04-15T04:52:21;99488.19;;;7.02;96.74
72961;BME280;61141;46.204;19.774;2023-04-15T04:55:23;99490.66;;;7.10;96.54
72961;BME280;61141;46.204;19.774;2023-04-15T04:58:26;99499.31;;;7.16;96.65
72961;BME280;61141;46.204;19.774;2023-04-15T05:01:29;99500.25;;;7.27;96.97
72961;BME280;61141;46.204;19.774;2023-04-15T05:04:32;99499.19;;;7.35;96.50
72961;BME280;61141;46.204;19.774;2023-04-15T05:07:36;99503.25;;;7.48;96.18
72961;BME280;61141;46.204;19.774;2023-04-15T05:10:39;99507.94;;;7.48;96.13
72961;BME280;61141;46.204;19.774;2023-04-15T05:13:41;99509.97;;;7.54;95.60
72961;BME280;61141;46.204;19.774;2023-04-15T05:16:44;99509.16;;;7.50;95.74
72961;BME280;61141;46.204;19.774;2023-04-15T05:19:47;99517.88;;;7.63;95.54
72961;BME280;61141;46.204;19.774;2023-04-15T05:22:50;99520.25;;;7.68;95.89
72961;BME280;61141;46.204;19.774;2023-04-15T05:25:53;99518.63;;;7.90;95.73
72961;BME280;61141;46.204;19.774;2023-04-15T05:28:56;99519.16;;;8.02;95.62
72961;BME280;61141;46.204;19.774;2023-04-15T05:31:59;99513.91;;;8.20;95.04
72961;BME280;61141;46.204;19.774;2023-04-15T05:35:03;99520.28;;;8.31;94.96
72961;BME280;61141;46.204;19.774;2023-04-15T05:38:05;99513.31;;;8.37;94.89
72961;BME280;61141;46.204;19.774;2023-04-15T05:41:08;99523.41;;;8.73;94.37
72961;BME280;61141;46.204;19.774;2023-04-15T05:44:11;99514.34;;;9.10;93.12
72961;BME280;61141;46.204;19.774;2023-04-15T05:47:14;99529.41;;;9.44;92.15
72961;BME280;61141;46.204;19.774;2023-04-15T05:50:17;99527.63;;;9.76;89.77
72961;BME280;61141;46.204;19.774;2023-04-15T05:53:20;99534.47;;;10.25;88.49
72961;BME280;61141;46.204;19.774;2023-04-15T05:56:23;99527.06;;;10.22;87.80
72961;BME280;61141;46.204;19.774;2023-04-15T05:59:28;99526.31;;;10.32;88.10
72961;BME280;61141;46.204;19.774;2023-04-15T06:02:31;99536.47;;;10.35;87.61
72961;BME280;61141;46.204;19.774;2023-04-15T06:05:34;99542.00;;;10.49;86.71
72961;BME280;61141;46.204;19.774;2023-04-15T06:08:37;99533.72;;;10.31;87.16
72961;BME280;61141;46.204;19.774;2023-04-15T06:11:40;99530.66;;;10.54;85.24
72961;BME280;61141;46.204;19.774;2023-04-15T06:14:42;99536.16;;;10.68;85.26
72961;BME280;61141;46.204;19.774;2023-04-15T06:17:45;99535.37;;;10.92;85.87
72961;BME280;61141;46.204;19.774;2023-04-15T06:20:48;99538.53;;;10.98;84.33
72961;BME280;61141;46.204;19.774;2023-04-15T06:23:51;99538.13;;;10.92;83.94
72961;BME280;61141;46.204;19.774;2023-04-15T06:26:54;99540.84;;;11.13;82.96
72961;BME280;61141;46.204;19.774;2023-04-15T06:29:57;99545.94;;;11.18;82.55
72961;BME280;61141;46.204;19.774;2023-04-15T06:33:00;99544.37;;;11.14;82.97
72961;BME280;61141;46.204;19.774;2023-04-15T06:36:05;99544.78;;;11.27;81.28
72961;BME280;61141;46.204;19.774;2023-04-15T06:39:08;99547.50;;;11.34;82.15
72961;BME280;61141;46.204;19.774;2023-04-15T06:42:11;99550.63;;;11.53;81.54
72961;BME280;61141;46.204;19.774;2023-04-15T06:45:13;99555.34;;;11.46;82.31
72961;BME280;61141;46.204;19.774;2023-04-15T06:48:16;99552.59;;;11.46;82.30
72961;BME280;61141;46.204;19.774;2023-04-15T06:51:19;99560.78;;;11.67;78.67
72961;BME280;61141;46.204;19.774;2023-04-15T06:54:23;99556.41;;;11.91;77.63
72961;BME280;61141;46.204;19.774;2023-04-15T06:57:25;99563.81;;;12.04;76.97
72961;BME280;61141;46.204;19.774;2023-04-15T07:00:28;99562.97;;;12.25;75.23
72961;BME280;61141;46.204;19.774;2023-04-15T07:03:32;99560.44;;;12.52;75.34
72961;BME280;61141;46.204;19.774;2023-04-15T07:06:35;99567.00;;;12.72;74.52
72961;BME280;61141;46.204;19.774;2023-04-15T07:09:37;99567.72;;;12.83;74.64
72961;BME280;61141;46.204;19.774;2023-04-15T07:12:40;99566.22;;;12.75;74.24
72961;BME280;61141;46.204;19.774;2023-04-15T07:15:43;99573.72;;;12.67;73.46
72961;BME280;61141;46.204;19.774;2023-04-15T07:18:47;99564.91;;;12.90;72.87
72961;BME280;61141;46.204;19.774;2023-04-15T07:21:50;99569.59;;;12.96;73.19
72961;BME280;61141;46.204;19.774;2023-04-15T07:24:53;99572.63;;;13.16;71.43
72961;BME280;61141;46.204;19.774;2023-04-15T07:27:56;99575.88;;;12.97;72.25
72961;BME280;61141;46.204;19.774;2023-04-15T07:30:59;99578.97;;;13.06;72.43
72961;BME280;61141;46.204;19.774;2023-04-15T07:34:03;99585.19;;;13.17;72.37
72961;BME280;61141;46.204;19.774;2023-04-15T07:37:06;99589.09;;;13.20;71.11
72961;BME280;61141;46.204;19.774;2023-04-15T07:40:10;99590.34;;;13.08;70.74
72961;BME280;61141;46.204;19.774;2023-04-15T07:43:13;99593.16;;;12.98;70.85
72961;BME280;61141;46.204;19.774;2023-04-15T07:46:16;99601.56;;;13.31;68.76
72961;BME280;61141;46.204;19.774;2023-04-15T07:49:19;99604.50;;;13.54;68.72
72961;BME280;61141;46.204;19.774;2023-04-15T07:52:23;99601.84;;;13.47;68.75
72961;BME280;61141;46.204;19.774;2023-04-15T07:55:26;99601.88;;;13.81;69.06
72961;BME280;61141;46.204;19.774;2023-04-15T07:58:29;99601.25;;;13.67;68.40
72961;BME280;61141;46.204;19.774;2023-04-15T08:01:33;99603.22;;;13.66;68.29
72961;BME280;61141;46.204;19.774;2023-04-15T08:04:36;99606.13;;;13.48;69.86
72961;BME280;61141;46.204;19.774;2023-04-15T08:07:39;99603.72;;;13.54;68.12
72961;BME280;61141;46.204;19.774;2023-04-15T08:10:42;99602.41;;;13.69;68.00
72961;BME280;61141;46.204;19.774;2023-04-15T08:13:46;99603.34;;;13.93;67.76
72961;BME280;61141;46.204;19.774;2023-04-15T08:16:49;99595.94;;;14.20;66.29
72961;BME280;61141;46.204;19.774;2023-04-15T08:19:52;99589.75;;;14.46;64.16
72961;BME280;61141;46.204;19.774;2023-04-15T08:22:55;99595.81;;;14.34;61.87
72961;BME280;61141;46.204;19.774;2023-04-15T08:25:58;99588.81;;;14.56;64.14
72961;BME280;61141;46.204;19.774;2023-04-15T08:29:01;99590.00;;;14.55;61.62
72961;BME280;61141;46.204;19.774;2023-04-15T08:32:05;99593.47;;;14.63;60.88
72961;BME280;61141;46.204;19.774;2023-04-15T08:35:08;99595.81;;;14.64;63.79
72961;BME280;61141;46.204;19.774;2023-04-15T08:38:11;99602.06;;;14.68;63.42
72961;BME280;61141;46.204;19.774;2023-04-15T08:41:22;99605.91;;;15.01;60.45
72961;BME280;61141;46.204;19.774;2023-04-15T08:44:26;99598.75;;;15.30;60.83
72961;BME280;61141;46.204;19.774;2023-04-15T08:47:31;99597.19;;;15.29;58.71
72961;BME280;61141;46.204;19.774;2023-04-15T08:50:35;99607.06;;;15.54;59.03
72961;BME280;61141;46.204;19.774;2023-04-15T08:53:38;99609.34;;;15.59;59.35
72961;BME280;61141;46.204;19.774;2023-04-15T08:56:41;99608.59;;;15.32;57.91
72961;BME280;61141;46.204;19.774;2023-04-15T08:59:44;99599.28;;;15.45;55.17
72961;BME280;61141;46.204;19.774;2023-04-15T09:02:47;99614.47;;;15.80;57.22
72961;BME280;61141;46.204;19.774;2023-04-15T09:05:50;99613.59;;;15.63;54.96
72961;BME280;61141;46.204;19.774;2023-04-15T09:08:54;99605.78;;;15.81;54.81
72961;BME280;61141;46.204;19.774;2023-04-15T09:12:00;99622.59;;;15.91;55.61
72961;BME280;61141;46.204;19.774;2023-04-15T09:15:03;99625.34;;;15.91;54.85
72961;BME280;61141;46.204;19.774;2023-04-15T09:18:06;99625.81;;;15.85;54.02
72961;BME280;61141;46.204;19.774;2023-04-15T09:21:12;99618.75;;;15.84;54.28
72961;BME280;61141;46.204;19.774;2023-04-15T09:24:15;99630.06;;;15.70;56.23
72961;BME280;61141;46.204;19.774;2023-04-15T09:27:19;99627.03;;;15.61;55.97
72961;BME280;61141;46.204;19.774;2023-04-15T09:30:22;99628.66;;;15.82;55.06
72961;BME280;61141;46.204;19.774;2023-04-15T09:33:26;99628.41;;;16.16;54.33
72961;BME280;61141;46.204;19.774;2023-04-15T09:39:52;99624.00;;;16.77;52.85
72961;BME280;61141;46.204;19.774;2023-04-15T09:42:55;99622.44;;;16.76;51.34
72961;BME280;61141;46.204;19.774;2023-04-15T09:45:58;99632.12;;;16.49;50.44
72961;BME280;61141;46.204;19.774;2023-04-15T09:49:11;99627.75;;;15.88;50.88
72961;BME280;61141;46.204;19.774;2023-04-15T09:52:14;99626.56;;;15.66;52.03
72961;BME280;61141;46.204;19.774;2023-04-15T09:55:17;99624.72;;;15.33;53.31
72961;BME280;61141;46.204;19.774;2023-04-15T09:58:25;99627.87;;;15.58;54.04
72961;BME280;61141;46.204;19.774;2023-04-15T10:01:31;99632.56;;;15.61;53.21
72961;BME280;61141;46.204;19.774;2023-04-15T10:04:38;99649.06;;;15.15;54.58
72961;BME280;61141;46.204;19.774;2023-04-15T10:07:42;99640.31;;;15.20;53.65
72961;BME280;61141;46.204;19.774;2023-04-15T10:10:46;99647.22;;;15.58;53.02
72961;BME280;61141;46.204;19.774;2023-04-15T10:13:51;99635.44;;;15.77;52.82
72961;BME280;61141;46.204;19.774;2023-04-15T10:16:55;99647.47;;;15.91;51.67
72961;BME280;61141;46.204;19.774;2023-04-15T10:20:01;99649.63;;;16.22;50.99
72961;BME280;61141;46.204;19.774;2023-04-15T10:23:05;99639.81;;;16.77;51.16
72961;BME280;61141;46.204;19.774;2023-04-15T10:26:13;99635.84;;;17.14;49.29
72961;BME280;61141;46.204;19.774;2023-04-15T10:29:17;99636.72;;;17.27;49.95
72961;BME280;61141;46.204;19.774;2023-04-15T10:32:21;99634.28;;;17.13;48.80
72961;BME280;61141;46.204;19.774;2023-04-15T10:35:26;99630.84;;;17.25;49.08
72961;BME280;61141;46.204;19.774;2023-04-15T10:38:40;99628.75;;;17.13;48.71
72961;BME280;61141;46.204;19.774;2023-04-15T10:41:44;99628.78;;;17.77;47.12
72961;BME280;61141;46.204;19.774;2023-04-15T10:44:48;99618.91;;;17.28;46.70
72961;BME280;61141;46.204;19.774;2023-04-15T10:47:58;99622.00;;;17.14;48.20
72961;BME280;61141;46.204;19.774;2023-04-15T10:51:05;99631.66;;;16.89;47.85
72961;BME280;61141;46.204;19.774;2023-04-15T10:54:13;99643.09;;;16.72;48.97
72961;BME280;61141;46.204;19.774;2023-04-15T10:57:22;99644.22;;;16.35;50.58
72961;BME280;61141;46.204;19.774;2023-04-15T11:00:31;99645.13;;;16.09;50.86
72961;BME280;61141;46.204;19.774;2023-04-15T11:03:39;99647.12;;;16.28;51.01
72961;BME280;61141;46.204;19.774;2023-04-15T11:06:43;99655.25;;;16.58;49.85
72961;BME280;61141;46.204;19.774;2023-04-15T11:09:47;99643.66;;;16.43;49.11
72961;BME280;61141;46.204;19.774;2023-04-15T11:12:56;99660.59;;;16.26;50.11
72961;BME280;61141;46.204;19.774;2023-04-15T11:16:00;99660.38;;;16.17;49.98
72961;BME280;61141;46.204;19.774;2023-04-15T11:19:04;99666.94;;;16.66;47.77
72961;BME280;61141;46.204;19.774;2023-04-15T11:22:10;99671.47;;;16.76;49.17
72961;BME280;61141;46.204;19.774;2023-04-15T11:25:24;99659.78;;;16.49;50.12
72961;BME280;61141;46.204;19.774;2023-04-15T11:28:29;99673.94;;;16.51;48.99
72961;BME280;61141;46.204;19.774;2023-04-15T11:31:32;99675.94;;;16.07;50.18
72961;BME280;61141;46.204;19.774;2023-04-15T11:34:35;99669.78;;;15.76;51.49
72961;BME280;61141;46.204;19.774;2023-04-15T11:37:38;99680.00;;;15.56;52.31
72961;BME280;61141;46.204;19.774;2023-04-15T11:40:42;99679.44;;;15.88;52.12
72961;BME280;61141;46.204;19.774;2023-04-15T11:43:49;99673.84;;;16.15;51.35
72961;BME280;61141;46.204;19.774;2023-04-15T11:46:54;99679.09;;;16.29;51.59
72961;BME280;61141;46.204;19.774;2023-04-15T11:49:57;99671.53;;;15.67;52.82
72961;BME280;61141;46.204;19.774;2023-04-15T11:53:14;99671.03;;;15.95;51.40
72961;BME280;61141;46.204;19.774;2023-04-15T11:56:22;99672.09;;;16.44;50.48
72961;BME280;61141;46.204;19.774;2023-04-15T11:59:25;99677.88;;;16.30;51.18
72961;BME280;61141;46.204;19.774;2023-04-15T12:02:46;99681.28;;;16.18;51.21
72961;BME280;61141;46.204;19.774;2023-04-15T12:09:10;99649.66;;;16.97;50.05
72961;BME280;61141;46.204;19.774;2023-04-15T12:12:14;99661.16;;;17.80;48.82
72961;BME280;61141;46.204;19.774;2023-04-15T12:15:16;99675.31;;;17.34;49.07
72961;BME280;61141;46.204;19.774;2023-04-15T12:18:20;99676.44;;;17.20;47.73
72961;BME280;61141;46.204;19.774;2023-04-15T12:21:26;99679.25;;;17.00;49.29
72961;BME280;61141;46.204;19.774;2023-04-15T12:24:33;99650.09;;;16.76;49.37
72961;BME280;61141;46.204;19.774;2023-04-15T12:27:36;99672.78;;;16.87;50.36
72961;BME280;61141;46.204;19.774;2023-04-15T12:30:49;99655.19;;;16.97;47.80
72961;BME280;61141;46.204;19.774;2023-04-15T12:34:03;99681.59;;;16.82;49.38
72961;BME280;61141;46.204;19.774;2023-04-15T12:37:11;99673.84;;;17.29;49.82
72961;BME280;61141;46.204;19.774;2023-04-15T12:40:15;99660.38;;;17.64;48.50
72961;BME280;61141;46.204;19.774;2023-04-15T12:43:18;99662.66;;;18.13;47.22
72961;BME280;61141;46.204;19.774;2023-04-15T12:46:20;99669.34;;;17.35;47.83
72961;BME280;61141;46.204;19.774;2023-04-15T12:49:25;99667.00;;;17.18;49.33
72961;BME280;61141;46.204;19.774;2023-04-15T12:52:28;99671.63;;;17.56;49.29
72961;BME280;61141;46.204;19.774;2023-04-15T12:55:31;99674.25;;;17.12;49.12
72961;BME280;61141;46.204;19.774;2023-04-15T12:58:34;99673.81;;;17.13;49.32
72961;BME280;61141;46.204;19.774;2023-04-15T13:01:37;99670.94;;;17.00;50.06
72961;BME280;61141;46.204;19.774;2023-04-15T13:04:40;99673.53;;;16.72;49.64
72961;BME280;61141;46.204;19.774;2023-04-15T13:07:43;99679.56;;;16.67;49.60
72961;BME280;61141;46.204;19.774;2023-04-15T13:10:46;99691.59;;;16.37;50.45
72961;BME280;61141;46.204;19.774;2023-04-15T13:13:49;99696.97;;;16.44;50.18
72961;BME280;61141;46.204;19.774;2023-04-15T13:16:54;99688.44;;;16.35;49.66
72961;BME280;61141;46.204;19.774;2023-04-15T13:19:57;99703.28;;;16.44;51.21
72961;BME280;61141;46.204;19.774;2023-04-15T13:23:00;99694.19;;;16.44;50.23
72961;BME280;61141;46.204;19.774;2023-04-15T13:26:03;99705.63;;;16.26;50.58
72961;BME280;61141;46.204;19.774;2023-04-15T13:29:06;99702.97;;;16.19;52.83
72961;BME280;61141;46.204;19.774;2023-04-15T13:32:10;99703.34;;;16.41;51.53
72961;BME280;61141;46.204;19.774;2023-04-15T13:35:12;99702.16;;;16.42;51.29
72961;BME280;61141;46.204;19.774;2023-04-15T13:38:16;99701.81;;;16.40;51.59
72961;BME280;61141;46.204;19.774;2023-04-15T13:41:19;99702.34;;;16.31;51.92
72961;BME280;61141;46.204;19.774;2023-04-15T13:44:23;99700.69;;;16.14;51.81
72961;BME280;61141;46.204;19.774;2023-04-15T13:47:26;99700.56;;;16.21;50.94
72961;BME280;61141;46.204;19.774;2023-04-15T13:50:29;99692.78;;;15.93;52.73
72961;BME280;61141;46.204;19.774;2023-04-15T13:53:32;99692.84;;;15.90;51.81
72961;BME280;61141;46.204;19.774;2023-04-15T13:56:41;99696.50;;;15.83;52.10
72961;BME280;61141;46.204;19.774;2023-04-15T13:59:44;99697.22;;;15.87;52.50
72961;BME280;61141;46.204;19.774;2023-04-15T14:02:47;99704.19;;;15.72;52.55
72961;BME280;61141;46.204;19.774;2023-04-15T14:05:50;99704.66;;;15.67;54.69
72961;BME280;61141;46.204;19.774;2023-04-15T14:08:57;99703.94;;;15.63;53.99
72961;BME280;61141;46.204;19.774;2023-04-15T14:12:00;99707.47;;;15.63;54.19
72961;BME280;61141;46.204;19.774;2023-04-15T14:15:04;99717.00;;;15.59;55.06
72961;BME280;61141;46.204;19.774;2023-04-15T14:18:07;99708.91;;;15.71;53.82
72961;BME280;61141;46.204;19.774;2023-04-15T14:21:09;99701.84;;;15.70;54.61
72961;BME280;61141;46.204;19.774;2023-04-15T14:24:12;99711.19;;;15.53;55.49
72961;BME280;61141;46.204;19.774;2023-04-15T14:27:15;99702.31;;;15.65;54.91
72961;BME280;61141;46.204;19.774;2023-04-15T14:30:18;99695.41;;;15.77;55.32
72961;BME280;61141;46.204;19.774;2023-04-15T14:33:21;99694.16;;;15.58;54.10
72961;BME280;61141;46.204;19.774;2023-04-15T14:36:25;99690.66;;;15.77;54.23
72961;BME280;61141;46.204;19.774;2023-04-15T14:39:28;99692.00;;;15.93;54.02
72961;BME280;61141;46.204;19.774;2023-04-15T14:42:31;99700.25;;;15.96;54.23
72961;BME280;61141;46.204;19.774;2023-04-15T14:45:34;99693.97;;;16.15;54.31
72961;BME280;61141;46.204;19.774;2023-04-15T14:48:38;99698.13;;;16.04;53.64
72961;BME280;61141;46.204;19.774;2023-04-15T14:51:41;99698.28;;;16.16;53.43
72961;BME280;61141;46.204;19.774;2023-04-15T14:54:44;99693.25;;;16.11;53.06
72961;BME280;61141;46.204;19.774;2023-04-15T14:57:47;99705.44;;;16.14;53.36
72961;BME280;61141;46.204;19.774;2023-04-15T15:00:50;99714.25;;;16.05;52.20
72961;BME280;61141;46.204;19.774;2023-04-15T15:03:53;99711.63;;;15.98;53.17
72961;BME280;61141;46.204;19.774;2023-04-15T15:06:56;99709.59;;;16.02;52.87
72961;BME280;61141;46.204;19.774;2023-04-15T15:09:58;99705.31;;;15.98;52.91
72961;BME280;61141;46.204;19.774;2023-04-15T15:13:03;99702.50;;;16.01;51.82
72961;BME280;61141;46.204;19.774;2023-04-15T15:16:06;99706.53;;;15.97;52.38
72961;BME280;61141;46.204;19.774;2023-04-15T15:19:10;99704.91;;;15.99;53.45
72961;BME280;61141;46.204;19.774;2023-04-15T15:22:12;99718.50;;;15.90;51.91
72961;BME280;61141;46.204;19.774;2023-04-15T15:25:15;99714.22;;;15.85;52.56
72961;BME280;61141;46.204;19.774;2023-04-15T15:28:18;99719.37;;;15.83;51.88
72961;BME280;61141;46.204;19.774;2023-04-15T15:31:23;99713.00;;;15.86;52.68
72961;BME280;61141;46.204;19.774;2023-04-15T15:34:26;99716.12;;;15.88;52.73
72961;BME280;61141;46.204;19.774;2023-04-15T15:37:29;99713.78;;;15.64;52.02
72961;BME280;61141;46.204;19.774;2023-04-15T15:40:32;99727.06;;;15.72;52.45
72961;BME280;61141;46.204;19.774;2023-04-15T15:43:35;99727.06;;;15.72;52.89
72961;BME280;61141;46.204;19.774;2023-04-15T15:46:38;99729.25;;;15.58;52.81
72961;BME280;61141;46.204;19.774;2023-04-15T15:49:41;99727.28;;;15.58;53.70
72961;BME280;61141;46.204;19.774;2023-04-15T15:52:44;99723.38;;;15.56;53.95
72961;BME280;61141;46.204;19.774;2023-04-15T15:55:46;99719.47;;;15.53;53.11
72961;BME280;61141;46.204;19.774;2023-04-15T15:58:49;99717.63;;;15.43;53.95
72961;BME280;61141;46.204;19.774;2023-04-15T16:01:52;99732.31;;;15.37;54.67
72961;BME280;61141;46.204;19.774;2023-04-15T16:04:56;99730.41;;;15.30;54.56
72961;BME280;61141;46.204;19.774;2023-04-15T16:07:58;99728.25;;;15.18;54.28
72961;BME280;61141;46.204;19.774;2023-04-15T16:11:01;99727.56;;;15.10;55.82